Time;durP1;ratioP1;P1;durP2;ratioP2;P2;SDS_P1;SDS_P2;PMS_P1;PMS_P2;Temp;Humidity;BMP_temperature;BMP_pressure;BME280_temperature;BME280_humidity;BME280_pressure;Samples;Min_cycle;Max_cycle;Signal;HPM_P1;HPM_P2
2023/01/02 00:01:52;;;;;;;8.13;5.38;;;;;;;;;;10352515;28;20755;-80
2023/01/02 00:06:55;;;;;;;5.72;4.35;;;;;;;;;;10347166;28;20042;-79
2023/01/02 00:11:56;;;;;;;6.13;4.47;;;;;;;;;;10352888;28;20387;-75
2023/01/02 00:16:56;;;;;;;5.22;4.18;;;;;;;;;;10341288;28;20121;-79
2023/01/02 00:21:57;;;;;;;5.07;3.85;;;;;;;;;;10371033;28;20074;-78
2023/01/02 00:26:58;;;;;;;6.88;3.90;;;;;;;;;;10405792;28;20045;-80
2023/01/02 00:31:58;;;;;;;5.85;4.10;;;;;;;;;;10374052;28;20081;-79
2023/01/02 00:36:59;;;;;;;6.35;3.97;;;;;;;;;;10385071;28;20030;-79
2023/01/02 00:42:01;;;;;;;7.97;3.42;;;;;;;;;;10353796;28;20049;-77
2023/01/02 00:47:02;;;;;;;5.67;3.80;;;;;;;;;;10351544;28;20367;-79
2023/01/02 00:52:03;;;;;;;5.93;3.58;;;;;;;;;;10345960;28;20312;-79
2023/01/02 00:57:04;;;;;;;5.40;3.75;;;;;;;;;;10343312;28;20057;-78
2023/01/02 01:02:04;;;;;;;6.23;3.73;;;;;;;;;;10342718;28;20049;-76
2023/01/02 01:07:04;;;;;;;4.63;3.43;;;;;;;;;;10340250;28;20045;-77
2023/01/02 01:12:05;;;;;;;5.72;3.88;;;;;;;;;;10333638;28;20309;-77
2023/01/02 01:17:05;;;;;;;5.07;4.00;;;;;;;;;;10342128;28;20457;-77
2023/01/02 01:22:06;;;;;;;5.13;3.60;;;;;;;;;;10323099;28;20121;-78
2023/01/02 01:27:06;;;;;;;5.20;3.72;;;;;;;;;;10340618;28;20340;-79
2023/01/02 01:32:07;;;;;;;4.88;3.80;;;;;;;;;;10344474;28;20050;-78
2023/01/02 01:37:08;;;;;;;5.43;4.00;;;;;;;;;;10353022;28;20038;-79
2023/01/02 01:42:13;;;;;;;7.32;3.95;;;;;;;;;;10339076;28;20491;-78
2023/01/02 01:47:18;;;;;;;6.70;4.38;;;;;;;;;;10338796;28;20042;-80
2023/01/02 01:52:21;;;;;;;6.68;4.75;;;;;;;;;;10346426;28;20416;-79
2023/01/02 01:57:27;;;;;;;5.30;4.03;;;;;;;;;;10347036;28;20045;-79
2023/01/02 02:02:28;;;;;;;8.45;4.75;;;;;;;;;;10346557;28;20036;-79
2023/01/02 02:07:29;;;;;;;5.28;4.00;;;;;;;;;;10344516;28;20042;-80
2023/01/02 02:12:29;;;;;;;5.95;4.20;;;;;;;;;;10333295;28;20054;-78
2023/01/02 02:17:48;;;;;;;6.70;4.32;;;;;;;;;;10327164;28;20073;-78
2023/01/02 02:23:00;;;;;;;6.18;4.10;;;;;;;;;;10338279;28;20514;-78
2023/01/02 02:28:10;;;;;;;7.50;4.65;;;;;;;;;;10336983;28;20070;-79
2023/01/02 02:33:17;;;;;;;6.03;4.13;;;;;;;;;;10357186;28;20178;-78
2023/01/02 02:38:29;;;;;;;8.02;4.35;;;;;;;;;;10351077;28;20116;-78
2023/01/02 02:43:45;;;;;;;5.90;4.10;;;;;;;;;;10333950;28;20049;-79
2023/01/02 02:48:55;;;;;;;6.32;3.88;;;;;;;;;;10346465;28;20096;-79
2023/01/02 02:54:01;;;;;;;6.97;4.10;;;;;;;;;;10391917;28;20050;-78
2023/01/02 02:59:03;;;;;;;6.35;4.30;;;;;;;;;;10399656;28;20189;-77
2023/01/02 03:04:08;;;;;;;6.50;4.30;;;;;;;;;;10375468;28;20121;-78
2023/01/02 03:09:26;;;;;;;5.50;3.78;;;;;;;;;;10324446;28;21056;-78
2023/01/02 03:14:35;;;;;;;7.03;3.90;;;;;;;;;;10318804;28;20054;-78
2023/01/02 03:19:44;;;;;;;4.60;3.60;;;;;;;;;;10346366;28;20045;-79
2023/01/02 03:24:46;;;;;;;6.82;4.13;;;;;;;;;;10337717;28;20044;-79
2023/01/02 03:29:53;;;;;;;7.40;4.13;;;;;;;;;;10350006;28;20035;-80
2023/01/02 03:34:56;;;;;;;4.82;3.90;;;;;;;;;;10336326;28;20058;-78
2023/01/02 03:39:57;;;;;;;5.33;3.50;;;;;;;;;;10349139;28;20090;-79
2023/01/02 03:45:08;;;;;;;5.10;3.63;;;;;;;;;;10367860;28;20033;-80
2023/01/02 03:50:16;;;;;;;6.03;4.20;;;;;;;;;;10346720;28;20073;-79
2023/01/02 03:55:16;;;;;;;5.63;3.67;;;;;;;;;;10329216;28;20050;-77
2023/01/02 04:00:18;;;;;;;5.20;3.53;;;;;;;;;;10339224;28;20451;-78
2023/01/02 04:05:23;;;;;;;6.80;3.65;;;;;;;;;;10353155;28;20117;-80
2023/01/02 04:10:24;;;;;;;3.95;3.35;;;;;;;;;;10349320;28;20459;-79
2023/01/02 04:15:26;;;;;;;6.18;4.07;;;;;;;;;;10351559;28;20050;-78
2023/01/02 04:20:33;;;;;;;6.10;4.15;;;;;;;;;;10341997;28;20089;-78
2023/01/02 04:25:40;;;;;;;6.25;4.10;;;;;;;;;;10343616;28;20042;-78
2023/01/02 04:30:54;;;;;;;6.55;3.53;;;;;;;;;;10338334;28;20608;-79
2023/01/02 04:35:55;;;;;;;5.93;3.90;;;;;;;;;;10335273;28;20045;-78
2023/01/02 04:40:58;;;;;;;6.03;4.00;;;;;;;;;;10335576;28;20058;-78
2023/01/02 04:46:00;;;;;;;7.45;4.00;;;;;;;;;;10329539;28;20414;-78
2023/01/02 04:51:00;;;;;;;4.80;3.63;;;;;;;;;;10327717;28;20066;-79
2023/01/02 04:56:04;;;;;;;7.03;4.13;;;;;;;;;;10348498;28;20029;-78
2023/01/02 05:01:08;;;;;;;7.20;4.68;;;;;;;;;;10314856;28;20417;-77
2023/01/02 05:06:09;;;;;;;6.70;4.13;;;;;;;;;;10327852;28;20033;-75
2023/01/02 05:11:11;;;;;;;6.40;4.28;;;;;;;;;;10322061;28;20038;-76
2023/01/02 05:16:11;;;;;;;5.47;3.92;;;;;;;;;;10365911;28;20417;-76
2023/01/02 05:26:32;;;;;;;5.20;3.67;;;;;;;;;;10345589;28;20049;-79
2023/01/02 05:31:33;;;;;;;5.68;3.90;;;;;;;;;;10335786;28;20490;-80
2023/01/02 05:36:34;;;;;;;6.32;4.30;;;;;;;;;;10331334;28;20038;-78
2023/01/02 05:41:34;;;;;;;4.90;4.00;;;;;;;;;;10336152;28;20149;-79
2023/01/02 05:46:35;;;;;;;6.70;3.93;;;;;;;;;;10321808;28;20064;-78
2023/01/02 05:51:37;;;;;;;6.70;4.30;;;;;;;;;;10336782;28;20408;-79
2023/01/02 05:56:39;;;;;;;;;;;;;;;;;;10338067;28;20447;-77
2023/01/02 06:01:39;;;;;;;6.10;3.90;;;;;;;;;;10344366;28;19917;-76
2023/01/02 06:06:40;;;;;;;5.50;4.32;;;;;;;;;;10353007;28;20049;-78
2023/01/02 06:11:41;;;;;;;7.82;4.63;;;;;;;;;;10345447;28;20092;-79
2023/01/02 06:16:43;;;;;;;5.97;3.90;;;;;;;;;;10327628;28;20041;-77
2023/01/02 06:21:43;;;;;;;6.23;4.47;;;;;;;;;;10343126;28;20046;-79
2023/01/02 06:26:45;;;;;;;7.40;4.60;;;;;;;;;;10350509;28;20414;-77
2023/01/02 06:31:45;;;;;;;6.85;4.22;;;;;;;;;;10331771;28;20363;-79
2023/01/02 06:36:46;;;;;;;5.60;4.07;;;;;;;;;;10348204;28;20114;-80
2023/01/02 06:41:47;;;;;;;5.80;4.25;;;;;;;;;;10336198;28;20093;-78
2023/01/02 06:46:47;;;;;;;6.82;4.35;;;;;;;;;;10329667;28;20064;-77
2023/01/02 06:51:49;;;;;;;5.97;4.13;;;;;;;;;;10351329;28;20106;-79
2023/01/02 06:56:50;;;;;;;6.75;3.97;;;;;;;;;;10349573;28;20133;-77
2023/01/02 07:01:51;;;;;;;6.10;4.33;;;;;;;;;;10359755;28;20071;-82
2023/01/02 07:06:52;;;;;;;6.53;4.50;;;;;;;;;;10374361;28;20297;-77
2023/01/02 07:11:52;;;;;;;5.93;3.95;;;;;;;;;;10348976;28;20038;-79
2023/01/02 07:16:54;;;;;;;6.72;4.57;;;;;;;;;;10332788;28;20425;-80
2023/01/02 07:21:58;;;;;;;6.70;4.35;;;;;;;;;;10351651;28;20045;-80
2023/01/02 07:26:59;;;;;;;5.88;4.22;;;;;;;;;;10352330;28;20045;-80
2023/01/02 07:32:01;;;;;;;5.53;4.00;;;;;;;;;;10351713;28;20052;-83
2023/01/02 07:37:05;;;;;;;6.32;4.30;;;;;;;;;;10420093;28;20269;-82
2023/01/02 07:42:07;;;;;;;5.57;3.67;;;;;;;;;;10415959;28;20041;-80
2023/01/02 07:47:08;;;;;;;6.65;4.32;;;;;;;;;;10416669;28;20085;-79
2023/01/02 07:52:13;;;;;;;6.38;4.55;;;;;;;;;;10357373;28;20231;-81
2023/01/02 07:57:16;;;;;;;5.47;3.70;;;;;;;;;;10337461;28;20052;-81
2023/01/02 08:02:17;;;;;;;6.50;4.10;;;;;;;;;;10320786;28;20044;-77
2023/01/02 08:07:21;;;;;;;5.70;3.63;;;;;;;;;;10343376;28;20045;-79
2023/01/02 08:12:22;;;;;;;7.18;3.80;;;;;;;;;;10375876;28;20060;-81
2023/01/02 08:17:24;;;;;;;6.22;4.45;;;;;;;;;;10424814;28;20048;-81
2023/01/02 08:22:25;;;;;;;5.88;4.15;;;;;;;;;;10424529;28;20041;-80
2023/01/02 08:27:29;;;;;;;6.53;4.13;;;;;;;;;;10467149;28;20029;-79
2023/01/02 08:32:38;;;;;;;5.97;4.40;;;;;;;;;;10448214;28;20050;-80
2023/01/02 08:37:39;;;;;;;5.80;4.07;;;;;;;;;;10454178;28;20049;-78
2023/01/02 08:42:43;;;;;;;6.93;4.70;;;;;;;;;;10473210;28;20036;-79
2023/01/02 08:47:45;;;;;;;8.05;4.18;;;;;;;;;;10439862;28;20056;-80
2023/01/02 08:52:51;;;;;;;6.70;4.35;;;;;;;;;;10395281;28;20545;-77
2023/01/02 08:57:51;;;;;;;6.35;4.63;;;;;;;;;;10409435;28;20119;-78
2023/01/02 09:09:20;;;;;;;6.32;4.18;;;;;;;;;;10824080;23;20315;-81
2023/01/02 09:15:04;;;;;;;6.35;4.07;;;;;;;;;;10473780;28;20041;-82
2023/01/02 09:20:45;;;;;;;8.07;4.25;;;;;;;;;;10475611;28;20110;-79
2023/01/02 09:25:47;;;;;;;6.15;4.15;;;;;;;;;;10508299;28;20033;-78
2023/01/02 09:30:52;;;;;;;5.80;3.45;;;;;;;;;;10485878;28;20560;-80
2023/01/02 09:36:36;;;;;;;6.93;4.38;;;;;;;;;;10448404;28;20076;-77
2023/01/02 09:41:42;;;;;;;5.72;3.90;;;;;;;;;;10490105;28;20051;-80
2023/01/02 09:47:28;;;;;;;5.15;3.90;;;;;;;;;;10465895;28;20124;-80
2023/01/02 09:52:31;;;;;;;6.32;4.93;;;;;;;;;;10455826;28;20512;-79
2023/01/02 09:58:04;;;;;;;5.15;3.75;;;;;;;;;;10460278;28;20025;-79
2023/01/02 10:03:53;;;;;;;6.73;4.27;;;;;;;;;;10454780;28;20071;-78
2023/01/02 10:09:02;;;;;;;7.63;4.65;;;;;;;;;;10407528;28;20064;-76
2023/01/02 10:14:04;;;;;;;5.97;4.10;;;;;;;;;;10410717;28;20092;-81
2023/01/02 10:19:11;;;;;;;5.70;4.35;;;;;;;;;;10410131;28;20043;-79
2023/01/02 10:24:13;;;;;;;4.32;3.70;;;;;;;;;;10418901;28;20037;-80
2023/01/02 10:29:21;;;;;;;4.95;4.05;;;;;;;;;;10414706;28;20047;-79
2023/01/02 10:34:22;;;;;;;6.47;3.80;;;;;;;;;;10391566;28;20129;-80
2023/01/02 10:39:29;;;;;;;5.00;4.28;;;;;;;;;;10390667;28;20377;-77
2023/01/02 10:44:32;;;;;;;6.63;4.53;;;;;;;;;;10400016;28;20030;-79
2023/01/02 10:49:36;;;;;;;5.77;4.00;;;;;;;;;;10409121;28;20121;-77
2023/01/02 10:54:47;;;;;;;6.20;4.43;;;;;;;;;;10386343;28;20102;-78
2023/01/02 10:59:57;;;;;;;5.00;3.80;;;;;;;;;;10372419;28;20045;-78
2023/01/02 11:05:00;;;;;;;7.53;4.20;;;;;;;;;;10384074;28;20048;-78
2023/01/02 11:10:01;;;;;;;5.70;3.75;;;;;;;;;;10406310;28;20528;-78
2023/01/02 11:15:10;;;;;;;6.15;3.80;;;;;;;;;;10393822;28;20142;-78
2023/01/02 11:20:26;;;;;;;7.25;4.03;;;;;;;;;;10379613;28;20152;-79
2023/01/02 11:25:27;;;;;;;5.35;3.65;;;;;;;;;;10403190;28;20044;-79
2023/01/02 11:30:42;;;;;;;5.15;3.58;;;;;;;;;;10416460;28;20068;-78
2023/01/02 11:35:47;;;;;;;5.95;3.90;;;;;;;;;;10432816;28;20323;-78
2023/01/02 11:40:58;;;;;;;5.40;3.90;;;;;;;;;;10395851;28;20037;-81
2023/01/02 11:46:05;;;;;;;6.23;4.03;;;;;;;;;;10398180;28;20060;-80
2023/01/02 11:51:22;;;;;;;6.05;3.70;;;;;;;;;;10431959;28;20037;-80
2023/01/02 11:56:42;;;;;;;4.40;3.55;;;;;;;;;;10411737;28;20103;-78
2023/01/02 12:01:59;;;;;;;6.07;3.70;;;;;;;;;;10370599;28;20080;-77
2023/01/02 12:07:00;;;;;;;4.97;3.80;;;;;;;;;;10398283;28;20787;-79
2023/01/02 12:12:21;;;;;;;4.97;3.88;;;;;;;;;;10390529;28;20462;-78
2023/01/02 12:17:22;;;;;;;4.22;3.35;;;;;;;;;;10442737;28;20115;-79
2023/01/02 12:22:41;;;;;;;5.55;3.85;;;;;;;;;;10441104;28;20080;-79
2023/01/02 12:27:55;;;;;;;5.28;3.83;;;;;;;;;;10423929;28;20060;-78
2023/01/02 12:33:14;;;;;;;6.55;3.85;;;;;;;;;;10450228;28;20112;-78
2023/01/02 12:38:30;;;;;;;5.45;3.60;;;;;;;;;;10433324;28;20140;-78
2023/01/02 12:43:49;;;;;;;5.30;3.25;;;;;;;;;;10440808;28;20045;-80
2023/01/02 12:49:09;;;;;;;4.32;3.03;;;;;;;;;;10438151;28;20682;-78
2023/01/02 12:54:29;;;;;;;4.50;2.53;;;;;;;;;;10438763;28;20396;-79
2023/01/02 12:59:53;;;;;;;6.18;2.80;;;;;;;;;;10420947;28;20052;-78
2023/01/02 13:04:54;;;;;;;;;;;;;;;;;;10434832;28;20080;-80
2023/01/02 13:10:05;;;;;;;6.70;2.58;;;;;;;;;;10455613;28;20343;-79
2023/01/02 13:15:09;;;;;;;5.35;2.63;;;;;;;;;;10422593;28;20107;-78
2023/01/02 13:20:29;;;;;;;4.38;2.22;;;;;;;;;;10445122;28;20616;-80
2023/01/02 13:25:31;;;;;;;4.18;2.22;;;;;;;;;;10441706;28;20052;-77
2023/01/02 13:30:36;;;;;;;3.95;2.25;;;;;;;;;;10440085;28;20044;-78
2023/01/02 13:35:37;;;;;;;6.60;2.38;;;;;;;;;;10440185;28;20049;-78
2023/01/02 13:40:39;;;;;;;4.95;2.50;;;;;;;;;;10431414;28;20091;-78
2023/01/02 13:45:50;;;;;;;6.63;2.03;;;;;;;;;;10442205;28;20132;-77
2023/01/02 13:50:58;;;;;;;5.55;2.90;;;;;;;;;;10440794;28;20033;-78
2023/01/02 13:56:06;;;;;;;8.32;2.58;;;;;;;;;;10446030;28;20068;-79
2023/01/02 14:01:25;;;;;;;9.73;3.65;;;;;;;;;;10436678;28;20038;-77
2023/01/02 14:06:30;;;;;;;7.47;2.60;;;;;;;;;;10432994;28;20106;-80
2023/01/02 14:11:32;;;;;;;8.63;2.95;;;;;;;;;;10418404;28;20183;-80
2023/01/02 14:16:46;;;;;;;7.43;2.73;;;;;;;;;;10427839;28;20094;-79
2023/01/02 14:21:53;;;;;;;7.93;3.20;;;;;;;;;;10434118;28;20037;-78
2023/01/02 14:26:58;;;;;;;9.23;2.72;;;;;;;;;;10444114;28;20403;-80
2023/01/02 14:32:02;;;;;;;9.25;2.92;;;;;;;;;;10441647;28;20067;-77
2023/01/02 14:37:03;;;;;;;6.93;3.17;;;;;;;;;;10430473;28;20057;-78
2023/01/02 14:47:38;;;;;;;7.07;2.90;;;;;;;;;;10439764;28;20028;-76
2023/01/02 14:52:42;;;;;;;4.47;2.08;;;;;;;;;;10445179;28;20172;-77
2023/01/02 14:57:47;;;;;;;8.02;3.05;;;;;;;;;;10440168;28;20110;-79
2023/01/02 15:02:49;;;;;;;7.30;2.65;;;;;;;;;;10432465;28;20068;-78
2023/01/02 15:07:51;;;;;;;7.15;3.05;;;;;;;;;;10423058;28;20062;-79
2023/01/02 15:13:07;;;;;;;8.18;3.05;;;;;;;;;;10438625;28;20053;-78
2023/01/02 15:18:17;;;;;;;8.85;4.72;;;;;;;;;;10438574;28;20159;-78
2023/01/02 15:23:20;;;;;;;6.72;2.65;;;;;;;;;;10443525;28;20448;-77
2023/01/02 15:28:22;;;;;;;7.18;4.65;;;;;;;;;;10437542;28;20051;-76
2023/01/02 15:33:23;;;;;;;8.90;3.80;;;;;;;;;;10438182;28;20116;-77
2023/01/02 15:38:24;;;;;;;10.80;4.67;;;;;;;;;;10434887;28;20025;-77
2023/01/02 15:48:49;;;;;;;8.02;4.15;;;;;;;;;;10430477;28;20064;-77
2023/01/02 15:53:51;;;;;;;10.27;5.15;;;;;;;;;;10457515;28;20029;-78
2023/01/02 15:58:51;;;;;;;7.20;3.40;;;;;;;;;;10440763;28;20041;-77
2023/01/02 16:03:53;;;;;;;8.13;4.07;;;;;;;;;;10427427;28;20477;-80
2023/01/02 16:08:58;;;;;;;7.30;3.20;;;;;;;;;;10388361;22;20061;-76
2023/01/02 16:14:18;;;;;;;7.47;3.25;;;;;;;;;;10365883;28;20042;-77
2023/01/02 16:19:22;;;;;;;6.68;2.80;;;;;;;;;;10353635;28;20207;-81
2023/01/02 16:24:23;;;;;;;5.72;2.65;;;;;;;;;;10355579;28;20101;-77
2023/01/02 16:29:25;;;;;;;7.10;2.80;;;;;;;;;;10347732;28;20516;-79
2023/01/02 16:34:31;;;;;;;5.07;3.80;;;;;;;;;;10341144;28;20287;-77
2023/01/02 16:39:49;;;;;;;5.30;2.97;;;;;;;;;;10340453;28;20127;-76
2023/01/02 16:44:52;;;;;;;4.93;2.80;;;;;;;;;;10331909;28;20038;-78
2023/01/02 16:49:54;;;;;;;5.72;3.78;;;;;;;;;;10341363;28;20050;-78
2023/01/02 16:54:55;;;;;;;6.07;3.28;;;;;;;;;;10348839;28;20057;-80
2023/01/02 16:59:56;;;;;;;6.32;3.33;;;;;;;;;;10337976;28;20064;-80
2023/01/02 17:04:59;;;;;;;8.07;3.80;;;;;;;;;;10349364;28;20050;-80
2023/01/02 17:10:01;;;;;;;9.27;3.00;;;;;;;;;;10332836;28;20128;-83
2023/01/02 17:15:02;;;;;;;8.55;3.47;;;;;;;;;;10363242;28;20053;-82
2023/01/02 17:20:07;;;;;;;6.68;3.38;;;;;;;;;;10383705;28;20041;-77
2023/01/02 17:25:10;;;;;;;7.47;4.18;;;;;;;;;;10381254;28;20054;-81
2023/01/02 17:30:13;;;;;;;9.05;3.78;;;;;;;;;;10353670;28;20046;-80
2023/01/02 17:35:15;;;;;;;9.07;5.32;;;;;;;;;;10359585;28;20037;-80
2023/01/02 17:40:15;;;;;;;7.90;4.65;;;;;;;;;;10362027;28;20092;-83
2023/01/02 17:45:16;;;;;;;8.88;5.38;;;;;;;;;;10372778;28;20050;-83
2023/01/02 17:50:18;;;;;;;12.35;5.18;;;;;;;;;;10393428;28;20087;-82
2023/01/02 17:55:21;;;;;;;8.35;4.38;;;;;;;;;;10376796;28;20034;-80
2023/01/02 18:00:22;;;;;;;10.70;4.87;;;;;;;;;;10405898;28;20042;-80
2023/01/02 18:05:23;;;;;;;9.10;4.18;;;;;;;;;;10416986;28;20308;-80
2023/01/02 18:10:26;;;;;;;8.88;4.22;;;;;;;;;;10399950;28;20040;-79
2023/01/02 18:15:31;;;;;;;7.38;4.00;;;;;;;;;;10383424;28;20045;-81
2023/01/02 18:20:36;;;;;;;10.30;4.20;;;;;;;;;;10403378;28;20041;-80
2023/01/02 18:25:37;;;;;;;8.07;4.78;;;;;;;;;;10387910;28;20049;-77
2023/01/02 18:30:37;;;;;;;15.25;5.45;;;;;;;;;;10397803;28;20037;-80
2023/01/02 18:35:38;;;;;;;9.77;4.15;;;;;;;;;;10392766;28;20150;-79
2023/01/02 18:40:39;;;;;;;8.65;4.07;;;;;;;;;;10383899;28;20025;-80
2023/01/02 18:45:43;;;;;;;6.68;3.70;;;;;;;;;;10403720;28;20044;-80
2023/01/02 18:50:56;;;;;;;26.55;13.35;;;;;;;;;;10400225;28;20034;-79
2023/01/02 18:56:01;;;;;;;7.15;3.40;;;;;;;;;;10392525;28;20044;-82
2023/01/02 19:01:20;;;;;;;7.10;3.17;;;;;;;;;;10397577;28;20120;-82
2023/01/02 19:06:25;;;;;;;5.28;2.92;;;;;;;;;;10398086;28;20052;-81
2023/01/02 19:17:02;;;;;;;5.47;3.00;;;;;;;;;;10422343;28;20044;-80
2023/01/02 19:22:18;;;;;;;9.30;3.65;;;;;;;;;;10433312;28;20057;-80
2023/01/02 19:27:38;;;;;;;8.07;3.22;;;;;;;;;;10432205;28;20508;-78
2023/01/02 19:32:39;;;;;;;6.88;3.30;;;;;;;;;;10436076;28;20041;-83
2023/01/02 19:37:44;;;;;;;7.15;3.25;;;;;;;;;;10400111;28;20029;-82
2023/01/02 19:43:00;;;;;;;11.15;3.30;;;;;;;;;;10402382;28;20049;-81
2023/01/02 19:48:03;;;;;;;5.03;2.67;;;;;;;;;;10370427;28;20042;-79
2023/01/02 19:53:09;;;;;;;7.10;3.30;;;;;;;;;;10389670;28;20478;-83
2023/01/02 19:58:10;;;;;;;5.95;2.80;;;;;;;;;;10397669;28;20269;-82
2023/01/02 20:03:13;;;;;;;5.30;2.80;;;;;;;;;;10425814;28;20049;-80
2023/01/02 20:08:18;;;;;;;6.13;2.80;;;;;;;;;;10363563;28;20423;-79
2023/01/02 20:13:19;;;;;;;4.05;2.63;;;;;;;;;;10388126;28;20394;-79
2023/01/02 20:18:20;;;;;;;4.95;2.67;;;;;;;;;;10379565;28;20049;-80
2023/01/02 20:23:22;;;;;;;4.88;2.35;;;;;;;;;;10953933;22;20053;-82
2023/01/02 20:28:25;;;;;;;4.83;2.10;;;;;;;;;;10389748;28;20033;-83
2023/01/02 20:33:31;;;;;;;1.40;0.80;;;;;;;;;;10404428;28;20305;-80
2023/01/02 20:38:35;;;;;;;1.52;1.20;;;;;;;;;;10390260;28;20037;-82
2023/01/02 20:43:37;;;;;;;4.95;1.30;;;;;;;;;;10356582;28;20512;-81
2023/01/02 20:48:38;;;;;;;1.75;1.05;;;;;;;;;;10348219;28;20041;-81
2023/01/02 20:53:41;;;;;;;2.80;0.90;;;;;;;;;;10361354;28;20038;-83
2023/01/02 20:58:41;;;;;;;2.25;0.85;;;;;;;;;;10357637;28;20796;-80
2023/01/02 21:03:43;;;;;;;1.55;1.17;;;;;;;;;;10384202;28;20073;-82
2023/01/02 21:08:45;;;;;;;1.80;1.10;;;;;;;;;;10356971;28;20489;-80
2023/01/02 21:13:46;;;;;;;1.23;0.70;;;;;;;;;;10367427;28;20061;-79
2023/01/02 21:18:46;;;;;;;0.80;0.80;;;;;;;;;;10361091;28;20499;-82
2023/01/02 21:23:48;;;;;;;0.60;0.60;;;;;;;;;;10381425;28;20059;-81
2023/01/02 21:28:50;;;;;;;0.88;0.80;;;;;;;;;;10374637;28;20033;-83
2023/01/02 21:33:51;;;;;;;1.10;0.80;;;;;;;;;;10371574;28;20055;-81
2023/01/02 21:38:52;;;;;;;1.00;0.80;;;;;;;;;;10366804;28;20448;-81
2023/01/02 21:43:54;;;;;;;1.70;0.80;;;;;;;;;;10370480;28;20115;-83
2023/01/02 21:48:54;;;;;;;1.38;0.70;;;;;;;;;;10373168;28;20144;-80
2023/01/02 21:53:55;;;;;;;1.50;0.93;;;;;;;;;;10343051;28;20061;-80
2023/01/02 21:59:03;;;;;;;2.05;1.00;;;;;;;;;;10355608;28;20042;-80
2023/01/02 22:04:04;;;;;;;1.20;1.10;;;;;;;;;;10364251;28;20119;-83
2023/01/02 22:09:04;;;;;;;1.20;1.10;;;;;;;;;;10356280;28;20084;-80
2023/01/02 22:14:13;;;;;;;1.50;0.88;;;;;;;;;;10356518;28;20053;-80
2023/01/02 22:19:14;;;;;;;1.00;0.90;;;;;;;;;;10338844;28;20044;-83
2023/01/02 22:24:17;;;;;;;1.50;1.40;;;;;;;;;;10377167;28;20133;-81
2023/01/02 22:29:20;;;;;;;1.15;0.90;;;;;;;;;;10414048;28;20041;-83
2023/01/02 22:34:22;;;;;;;1.15;1.05;;;;;;;;;;10409563;28;20072;-81
2023/01/02 22:39:23;;;;;;;1.73;1.33;;;;;;;;;;10413722;28;20046;-82
2023/01/02 22:44:24;;;;;;;4.57;1.55;;;;;;;;;;10455444;28;20387;-80
2023/01/02 22:49:29;;;;;;;1.70;1.53;;;;;;;;;;10472636;28;20068;-80
2023/01/02 22:54:30;;;;;;;1.13;1.02;;;;;;;;;;10425441;28;20436;-80
2023/01/02 22:59:31;;;;;;;1.60;1.40;;;;;;;;;;10421403;28;20060;-81
2023/01/02 23:04:31;;;;;;;1.63;1.30;;;;;;;;;;10417679;28;20052;-80
2023/01/02 23:09:32;;;;;;;2.13;1.30;;;;;;;;;;10401918;28;20075;-80
2023/01/02 23:14:34;;;;;;;2.03;1.70;;;;;;;;;;10419420;28;20483;-81
2023/01/02 23:19:34;;;;;;;1.45;1.30;;;;;;;;;;10405561;28;20037;-81
2023/01/02 23:24:36;;;;;;;1.40;1.30;;;;;;;;;;10391647;28;20063;-80
2023/01/02 23:29:37;;;;;;;2.78;1.70;;;;;;;;;;10412196;28;20456;-77
2023/01/02 23:34:37;;;;;;;2.20;1.80;;;;;;;;;;10425129;28;20039;-81
2023/01/02 23:39:38;;;;;;;2.00;1.73;;;;;;;;;;10433951;28;20048;-79
2023/01/02 23:44:39;;;;;;;1.58;1.48;;;;;;;;;;10428724;28;20057;-80
2023/01/02 23:49:41;;;;;;;1.60;1.50;;;;;;;;;;10426097;28;20056;-78
2023/01/02 23:54:42;;;;;;;2.15;1.80;;;;;;;;;;10405467;28;20079;-78
2023/01/02 23:59:43;;;;;;;3.33;2.20;;;;;;;;;;10412466;28;20033;-78
